Карточка аэропорта UUYY

Внимание!
Информация на этой странице в стадии наполнения.
Если вы не увидели какой-то информации, или заметили неточность - пожалуйста сообщите нам!
Спасибо!
Команда RU-STAFF
Название аэропортаСыктывкар
Название аэропорта (англ.)Syktyvkar
Превышение339 ft. (103.3 m.)
Координаты61°38.502', 50°50.298'
Высота перехода3000 feet
Эшелон переходаQNH>=1013hPa:FL040; QNH<1013hPa:FL050; QNH<977hPa:FL060
Коды ответчика3130-3134, 5752-5757, 5770-5777, 6701-6717
Зона ОрВДСанкт-Петербург РПИ (ULLL)
Данные METARUUYY 280600Z 20002MPS 4700 -SN BKN027 M03/M03 Q1024 R18/490339 NOSIG RMK QFE759/1013
Проноз погоды (TAF)UUYY 280500Z 2806/2906 19003MPS 3500 -SHSN BKN017CB TEMPO 2806/2815 0500 +SHSN FZRA BKN004 BKN016CB FM281500 21003MPS 6000 -SHSN BKN017CB TEMPO 2815/2901 1500 SHSN FZRA FEW007 BKN016CB TEMPO 2901/2906 -FZRA BKN016CB
NOTAMshow/hide NOTAM
AWOS   TABLE

Информация о ВПП

ВПП Длина ВПП (м.) Покрытие Курс ВПП Частота ILS
012500Асфальтобетон6108.3
192500Асфальтобетон186111.7

Диспетчерские позиции

Позывной Наименование органа УВД Частота
UUYY_R_APPСивкар-Круг124.600
UUYY_TWRСивкар-Старт124.600



Спутниковое изображение